createdAt,value
2023-05-20T00:00:23.059Z,3.60
2023-05-20T00:01:25.293Z,3.10
2023-05-20T00:02:27.761Z,2.53
2023-05-20T00:03:30.197Z,3.20
2023-05-20T00:04:32.533Z,2.80
2023-05-20T00:05:35.052Z,2.70
2023-05-20T00:06:37.305Z,2.97
2023-05-20T00:07:39.894Z,3.13
2023-05-20T00:08:42.198Z,3.45
2023-05-20T00:09:44.635Z,2.97
2023-05-20T00:10:46.816Z,2.65
2023-05-20T00:11:49.213Z,2.58
2023-05-20T00:12:51.343Z,3.08
2023-05-20T00:13:53.503Z,2.67
2023-05-20T00:14:57.307Z,2.55
2023-05-20T00:15:59.617Z,2.80
2023-05-20T00:17:01.895Z,2.75
2023-05-20T00:18:04.475Z,2.75
2023-05-20T00:19:06.823Z,2.47
2023-05-20T00:20:11.305Z,3.15
2023-05-20T00:21:13.557Z,2.72
2023-05-20T00:22:15.918Z,2.78
2023-05-20T00:23:18.060Z,2.55
2023-05-20T00:24:20.237Z,2.80
2023-05-20T00:25:22.441Z,2.85
2023-05-20T00:26:24.623Z,2.95
2023-05-20T00:27:27.319Z,2.90
2023-05-20T00:28:30.563Z,2.90
2023-05-20T00:29:34.315Z,3.20
2023-05-20T00:30:40.216Z,2.95
2023-05-20T00:31:42.546Z,2.55
2023-05-20T00:32:44.875Z,3.05
2023-05-20T00:33:47.150Z,2.90
2023-05-20T00:34:57.357Z,2.83
2023-05-20T00:35:59.557Z,3.17
2023-05-20T00:37:01.783Z,2.97
2023-05-20T00:38:03.940Z,3.15
2023-05-20T00:39:06.408Z,3.08
2023-05-20T00:40:09.422Z,3.10
2023-05-20T00:41:11.614Z,2.63
2023-05-20T00:42:20.851Z,2.83
2023-05-20T00:43:25.508Z,3.28
2023-05-20T00:44:27.842Z,2.70
2023-05-20T00:45:30.950Z,3.00
2023-05-20T00:46:35.922Z,3.30
2023-05-20T00:47:39.608Z,3.30
2023-05-20T00:48:43.775Z,3.40
2023-05-20T00:49:49.640Z,3.13
2023-05-20T00:50:52.653Z,3.30
2023-05-20T00:51:55.007Z,2.83
2023-05-20T00:52:57.224Z,2.60
2023-05-20T00:53:59.522Z,2.92
2023-05-20T00:55:01.861Z,2.47
2023-05-20T00:56:05.100Z,2.90
2023-05-20T00:57:08.496Z,2.85
2023-05-20T00:58:11.518Z,3.20
2023-05-20T00:59:14.207Z,2.65
2023-05-20T01:00:16.651Z,3.17
2023-05-20T01:01:19.019Z,2.60
2023-05-20T01:02:22.896Z,3.28
2023-05-20T01:03:25.754Z,2.80
2023-05-20T01:04:28.251Z,2.97
2023-05-20T01:05:30.640Z,2.63
2023-05-20T01:06:33.905Z,2.60
2023-05-20T01:07:36.430Z,2.53
2023-05-20T01:08:38.707Z,3.78
2023-05-20T01:09:41.426Z,3.00
2023-05-20T01:10:47.676Z,2.90
2023-05-20T01:11:55.955Z,2.92
2023-05-20T01:13:02.118Z,2.70
2023-05-20T01:14:07.109Z,2.53
2023-05-20T01:15:11.305Z,3.13
2023-05-20T01:16:16.929Z,2.83
2023-05-20T01:17:27.261Z,2.83
2023-05-20T01:18:32.586Z,3.07
2023-05-20T01:19:38.694Z,2.90
2023-05-20T01:20:40.999Z,2.88
2023-05-20T01:21:45.712Z,2.78
2023-05-20T01:22:49.729Z,3.03
2023-05-20T01:23:51.928Z,3.33
2023-05-20T01:24:54.227Z,3.33
2023-05-20T01:25:56.404Z,2.92
2023-05-20T01:26:58.548Z,2.55
2023-05-20T01:28:01.882Z,2.90
2023-05-20T01:29:04.453Z,2.67
2023-05-20T01:30:08.105Z,2.92
2023-05-20T01:32:37.439Z,2.80
2023-05-20T01:33:43.563Z,2.92
2023-05-20T01:34:50.095Z,2.78
2023-05-20T01:35:52.362Z,2.63
2023-05-20T01:36:55.801Z,2.88
2023-05-20T01:38:00.220Z,3.05
2023-05-20T01:39:03.727Z,2.88
2023-05-20T01:40:08.916Z,2.83
2023-05-20T01:41:12.436Z,3.00
2023-05-20T01:42:16.679Z,3.20
2023-05-20T01:43:18.934Z,2.97
2023-05-20T01:44:21.621Z,2.50
2023-05-20T01:45:25.499Z,2.95
2023-05-20T01:46:27.868Z,3.03
2023-05-20T01:47:30.160Z,2.72
2023-05-20T01:48:32.359Z,2.70
2023-05-20T01:49:34.558Z,2.63
2023-05-20T01:50:36.842Z,3.13
2023-05-20T01:51:39.147Z,2.78
2023-05-20T01:52:41.395Z,3.53
2023-05-20T01:53:44.990Z,2.75
2023-05-20T01:54:51.157Z,3.22
2023-05-20T01:55:53.388Z,2.70
2023-05-20T01:56:56.429Z,2.85
2023-05-20T01:57:58.705Z,3.05
2023-05-20T01:59:00.884Z,2.65
2023-05-20T02:00:03.914Z,2.95
2023-05-20T02:01:06.270Z,2.80
2023-05-20T02:02:08.491Z,3.10
2023-05-20T02:03:11.395Z,3.40
2023-05-20T02:04:13.635Z,2.90
2023-05-20T02:05:16.395Z,2.65
2023-05-20T02:06:18.712Z,3.38
2023-05-20T02:07:21.100Z,2.90
2023-05-20T02:08:23.364Z,2.67
2023-05-20T02:09:26.967Z,2.63
2023-05-20T02:10:29.195Z,2.80
2023-05-20T02:11:31.407Z,3.15
2023-05-20T02:12:33.627Z,2.97
2023-05-20T02:13:35.909Z,3.15
2023-05-20T02:14:38.149Z,2.97
2023-05-20T02:15:42.322Z,2.75
2023-05-20T02:16:44.512Z,2.60
2023-05-20T02:17:47.303Z,3.00
2023-05-20T02:18:51.672Z,3.35
2023-05-20T02:19:53.904Z,3.17
2023-05-20T02:20:56.039Z,3.00
2023-05-20T02:21:58.279Z,3.10
2023-05-20T02:23:00.632Z,3.15
2023-05-20T02:24:02.832Z,2.47
2023-05-20T02:25:08.469Z,3.03
2023-05-20T02:26:10.750Z,2.65
2023-05-20T02:27:13.281Z,2.65
2023-05-20T02:28:16.265Z,3.00
2023-05-20T02:29:18.544Z,2.90
2023-05-20T02:30:20.792Z,2.72
2023-05-20T02:31:23.043Z,2.70
2023-05-20T02:32:28.630Z,2.83
2023-05-20T02:33:31.072Z,2.90
2023-05-20T02:34:33.711Z,2.67
2023-05-20T02:35:36.016Z,2.75
2023-05-20T02:36:38.242Z,2.90
2023-05-20T02:37:40.605Z,2.75
2023-05-20T02:38:43.043Z,2.92
2023-05-20T02:39:45.333Z,2.58
2023-05-20T02:40:48.877Z,2.53
2023-05-20T02:41:51.140Z,2.88
2023-05-20T02:42:53.373Z,2.80
2023-05-20T02:43:55.527Z,2.60
2023-05-20T02:44:58.871Z,2.65
2023-05-20T02:46:01.123Z,2.35
2023-05-20T02:47:03.363Z,2.53
2023-05-20T02:48:06.073Z,2.90
2023-05-20T02:49:08.313Z,2.38
2023-05-20T02:50:10.985Z,3.05
2023-05-20T02:51:13.169Z,2.80
2023-05-20T02:52:16.537Z,2.90
2023-05-20T02:53:18.771Z,2.88
2023-05-20T02:54:21.404Z,2.50
2023-05-20T02:55:23.895Z,2.63
2023-05-20T02:56:28.770Z,2.70
2023-05-20T02:57:31.460Z,2.50
2023-05-20T02:58:35.806Z,2.25
2023-05-20T02:59:38.124Z,1.90
2023-05-20T03:00:43.467Z,2.50
2023-05-20T03:01:45.779Z,2.40
2023-05-20T03:02:48.040Z,2.60
2023-05-20T03:03:50.792Z,2.22
2023-05-20T03:04:54.119Z,2.33
2023-05-20T03:05:56.324Z,2.35
2023-05-20T03:06:58.495Z,2.40
2023-05-20T03:08:01.513Z,2.60
2023-05-20T03:09:03.810Z,2.28
2023-05-20T03:10:08.083Z,2.20
2023-05-20T03:11:10.317Z,2.70
2023-05-20T03:12:14.016Z,2.40
2023-05-20T03:13:16.331Z,2.30
2023-05-20T03:14:18.521Z,2.22
2023-05-20T03:15:20.785Z,2.05
2023-05-20T03:16:23.061Z,2.25
2023-05-20T03:17:25.372Z,2.45
2023-05-20T03:18:27.633Z,2.63
2023-05-20T03:19:29.933Z,2.05
2023-05-20T03:20:38.745Z,2.17
2023-05-20T03:21:41.293Z,1.90
2023-05-20T03:22:43.504Z,2.38
2023-05-20T03:23:45.732Z,2.47
2023-05-20T03:24:48.566Z,2.15
2023-05-20T03:25:50.853Z,1.92
2023-05-20T03:26:53.350Z,2.50
2023-05-20T03:27:58.443Z,2.25
2023-05-20T03:29:00.690Z,2.22
2023-05-20T03:30:02.899Z,1.95
2023-05-20T03:31:05.300Z,2.20
2023-05-20T03:32:10.153Z,2.40
2023-05-20T03:33:13.166Z,1.85
2023-05-20T03:34:16.059Z,1.90
2023-05-20T03:35:18.469Z,2.05
2023-05-20T03:36:20.828Z,1.98
2023-05-20T03:37:23.021Z,2.00
2023-05-20T03:38:25.352Z,2.25
2023-05-20T03:39:27.564Z,1.73
2023-05-20T03:40:29.789Z,1.73
2023-05-20T03:41:33.308Z,2.30
2023-05-20T03:42:35.749Z,2.30
2023-05-20T03:43:39.483Z,1.92
2023-05-20T03:44:41.650Z,2.35
2023-05-20T03:45:43.864Z,2.10
2023-05-20T03:46:46.225Z,1.88
2023-05-20T03:47:48.513Z,1.70
2023-05-20T03:48:50.896Z,2.25
2023-05-20T03:49:53.389Z,1.95
2023-05-20T03:50:55.720Z,1.83
2023-05-20T03:51:57.930Z,2.00
2023-05-20T03:53:00.162Z,1.92
2023-05-20T03:54:02.314Z,1.70
2023-05-20T03:55:05.025Z,1.77
2023-05-20T03:56:07.367Z,1.70
2023-05-20T03:57:10.661Z,1.88
2023-05-20T03:58:13.789Z,1.70
2023-05-20T03:59:18.017Z,1.65
2023-05-20T04:00:20.186Z,1.80
2023-05-20T04:01:25.765Z,1.60
2023-05-20T04:02:28.227Z,2.00
2023-05-20T04:03:31.564Z,1.58
2023-05-20T04:04:33.860Z,1.88
2023-05-20T04:05:37.354Z,1.52
2023-05-20T04:06:40.846Z,1.50
2023-05-20T04:07:43.082Z,1.75
2023-05-20T04:08:46.962Z,1.63
2023-05-20T04:09:49.159Z,1.58
2023-05-20T04:10:51.317Z,1.80
2023-05-20T04:11:53.585Z,1.33
2023-05-20T04:12:55.883Z,1.80
2023-05-20T04:14:00.442Z,1.40
2023-05-20T04:15:08.301Z,1.30
2023-05-20T04:16:10.582Z,1.90
2023-05-20T04:17:12.874Z,1.58
2023-05-20T04:18:15.194Z,1.42
2023-05-20T04:19:22.292Z,1.20
2023-05-20T04:20:24.706Z,1.40
2023-05-20T04:21:27.335Z,1.40
2023-05-20T04:22:29.890Z,1.35
2023-05-20T04:23:32.182Z,1.27
2023-05-20T04:24:34.340Z,1.33
2023-05-20T04:25:36.732Z,1.23
2023-05-20T04:26:39.878Z,1.33
2023-05-20T04:27:42.109Z,1.50
2023-05-20T04:28:44.293Z,1.40
2023-05-20T04:29:47.477Z,1.30
2023-05-20T04:30:59.272Z,1.30
2023-05-20T04:32:01.669Z,1.30
2023-05-20T04:33:04.174Z,1.42
2023-05-20T04:34:06.577Z,1.20
2023-05-20T04:35:12.206Z,1.45
2023-05-20T04:36:16.619Z,1.60
2023-05-20T04:37:21.206Z,1.50
2023-05-20T04:38:23.402Z,1.27
2023-05-20T04:39:26.972Z,1.10
2023-05-20T04:40:29.222Z,1.40
2023-05-20T04:41:31.478Z,1.40
2023-05-20T04:42:37.911Z,1.10
2023-05-20T04:43:40.610Z,1.20
2023-05-20T04:44:42.801Z,1.67
2023-05-20T04:45:45.971Z,1.52
2023-05-20T04:46:49.508Z,1.73
2023-05-20T04:47:53.484Z,1.30
2023-05-20T04:48:56.178Z,1.40
2023-05-20T04:49:58.875Z,1.15
2023-05-20T04:51:01.421Z,1.30
2023-05-20T04:52:04.782Z,1.40
2023-05-20T04:53:07.970Z,1.40
2023-05-20T04:54:10.348Z,1.55
2023-05-20T04:55:13.545Z,1.40
2023-05-20T04:56:15.735Z,1.70
2023-05-20T04:57:21.157Z,1.30
2023-05-20T04:58:25.223Z,1.73
2023-05-20T04:59:27.606Z,1.40
2023-05-20T05:00:30.545Z,1.13
2023-05-20T05:01:32.823Z,1.50
2023-05-20T05:02:36.615Z,1.35
2023-05-20T05:03:38.906Z,1.15
2023-05-20T05:04:41.581Z,1.20
2023-05-20T05:05:44.980Z,1.30
2023-05-20T05:06:48.423Z,1.35
2023-05-20T05:07:50.677Z,1.42
2023-05-20T05:08:52.886Z,1.45
2023-05-20T05:09:55.139Z,1.05
2023-05-20T05:10:57.357Z,1.20
2023-05-20T05:11:59.545Z,1.10
2023-05-20T05:13:01.927Z,1.27
2023-05-20T05:14:04.134Z,1.25
2023-05-20T05:15:07.533Z,1.70
2023-05-20T05:16:09.758Z,1.63
2023-05-20T05:17:11.986Z,1.30
2023-05-20T05:18:18.689Z,0.98
2023-05-20T05:19:21.018Z,0.98
2023-05-20T05:20:23.364Z,1.08
2023-05-20T05:21:25.491Z,1.02
2023-05-20T05:22:27.659Z,1.27
2023-05-20T05:23:30.163Z,1.50
2023-05-20T05:24:32.406Z,1.42
2023-05-20T05:25:34.755Z,1.25
2023-05-20T05:26:37.593Z,1.25
2023-05-20T05:27:40.162Z,1.15
2023-05-20T05:28:43.511Z,1.20
2023-05-20T05:29:45.725Z,1.15
2023-05-20T05:30:47.959Z,1.08
2023-05-20T05:31:50.171Z,1.30
2023-05-20T05:32:52.728Z,1.30
2023-05-20T05:33:56.496Z,1.23
2023-05-20T05:34:58.962Z,1.13
2023-05-20T05:36:02.634Z,1.20
2023-05-20T05:37:05.154Z,1.40
2023-05-20T05:38:07.391Z,1.40
2023-05-20T05:39:09.560Z,1.30
2023-05-20T05:40:12.518Z,1.63
2023-05-20T05:41:14.933Z,1.63
2023-05-20T05:42:17.594Z,1.40
2023-05-20T05:43:19.987Z,1.10
2023-05-20T05:44:22.173Z,1.23
2023-05-20T05:45:24.408Z,1.13
2023-05-20T05:46:26.587Z,1.20
2023-05-20T05:47:32.691Z,1.20
2023-05-20T05:48:36.124Z,2.83
2023-05-20T05:49:39.715Z,1.52
2023-05-20T05:50:44.989Z,1.55
2023-05-20T05:51:47.209Z,1.40
2023-05-20T05:52:49.490Z,1.40
2023-05-20T05:53:51.674Z,1.00
2023-05-20T05:54:54.391Z,1.30
2023-05-20T05:55:56.541Z,1.10
2023-05-20T05:56:58.952Z,1.40
2023-05-20T05:58:01.163Z,1.20
2023-05-20T05:59:04.629Z,1.27
2023-05-20T06:00:08.088Z,1.25
2023-05-20T06:01:10.421Z,1.67
2023-05-20T06:02:14.696Z,1.08
2023-05-20T06:03:17.086Z,1.50
2023-05-20T06:04:19.328Z,1.65
2023-05-20T06:05:22.951Z,1.15
2023-05-20T06:06:25.207Z,1.20
2023-05-20T06:07:27.392Z,1.20
2023-05-20T06:08:29.905Z,1.30
2023-05-20T06:09:32.126Z,1.50
2023-05-20T06:10:34.334Z,1.10
2023-05-20T06:11:36.528Z,1.02
2023-05-20T06:12:38.818Z,1.13
2023-05-20T06:13:41.027Z,1.30
2023-05-20T06:14:43.502Z,1.10
2023-05-20T06:15:46.544Z,1.40
2023-05-20T06:16:48.907Z,0.95
2023-05-20T06:17:51.282Z,1.10
2023-05-20T06:18:57.268Z,1.20
2023-05-20T06:20:00.194Z,1.00
2023-05-20T06:21:04.867Z,1.00
2023-05-20T06:22:07.034Z,1.10
2023-05-20T06:23:09.217Z,1.25
2023-05-20T06:24:11.881Z,1.30
2023-05-20T06:25:15.007Z,1.17
2023-05-20T06:26:17.176Z,1.00
2023-05-20T06:27:19.332Z,1.25
2023-05-20T06:28:21.618Z,1.00
2023-05-20T06:29:24.083Z,1.50
2023-05-20T06:30:26.320Z,1.33
2023-05-20T06:31:30.278Z,1.17
2023-05-20T06:32:32.690Z,1.38
2023-05-20T06:33:35.260Z,1.13
2023-05-20T06:34:37.736Z,1.40
2023-05-20T06:35:40.003Z,1.10
2023-05-20T06:36:43.595Z,1.05
2023-05-20T06:37:47.326Z,0.93
2023-05-20T06:38:50.627Z,1.10
2023-05-20T06:39:54.140Z,1.10
2023-05-20T06:40:56.471Z,1.10
2023-05-20T06:41:58.865Z,0.98
2023-05-20T06:43:01.105Z,1.48
2023-05-20T06:44:03.370Z,1.10
2023-05-20T06:45:06.535Z,0.80
2023-05-20T06:46:08.820Z,1.10
2023-05-20T06:47:11.764Z,0.88
2023-05-20T06:48:13.919Z,1.00
2023-05-20T06:49:16.137Z,1.17
2023-05-20T06:50:18.480Z,0.90
2023-05-20T06:51:20.693Z,0.90
2023-05-20T06:52:24.236Z,0.93
2023-05-20T06:53:26.701Z,0.98
2023-05-20T06:54:28.864Z,1.17
2023-05-20T06:55:31.187Z,1.17
2023-05-20T06:56:33.364Z,1.10
2023-05-20T06:57:35.642Z,1.05
2023-05-20T06:58:37.800Z,1.00
2023-05-20T06:59:40.022Z,1.08
2023-05-20T07:00:42.297Z,1.13
2023-05-20T07:01:44.588Z,1.10
2023-05-20T07:02:46.823Z,1.02
2023-05-20T07:03:49.104Z,1.10
2023-05-20T07:04:51.390Z,0.70
2023-05-20T07:05:53.599Z,1.00
2023-05-20T07:06:56.017Z,0.77
2023-05-20T07:07:59.593Z,1.13
2023-05-20T07:09:01.940Z,0.90
2023-05-20T07:10:05.972Z,1.00
2023-05-20T07:11:08.444Z,4.38
2023-05-20T07:12:10.687Z,2.88
2023-05-20T07:13:12.983Z,3.30
2023-05-20T07:14:15.150Z,1.63
2023-05-20T07:15:18.096Z,0.90
2023-05-20T07:16:20.722Z,1.15
2023-05-20T07:17:23.205Z,5.63
2023-05-20T07:18:25.561Z,7.95
2023-05-20T07:19:27.825Z,11.57
2023-05-20T07:20:30.148Z,7.55
2023-05-20T07:21:32.408Z,5.32
2023-05-20T07:22:34.609Z,6.50
2023-05-20T07:23:38.224Z,2.85
2023-05-20T07:24:40.460Z,1.23
2023-05-20T07:25:42.696Z,1.60
2023-05-20T07:26:44.978Z,2.30
2023-05-20T07:27:47.742Z,1.35
2023-05-20T07:28:49.960Z,2.13
2023-05-20T07:29:52.916Z,2.33
2023-05-20T07:30:57.273Z,1.95
2023-05-20T07:31:59.781Z,1.70
2023-05-20T07:33:02.397Z,1.48
2023-05-20T07:34:04.791Z,3.92
2023-05-20T07:35:07.743Z,3.38
2023-05-20T07:36:11.333Z,3.85
2023-05-20T07:37:13.963Z,2.80
2023-05-20T07:38:16.471Z,2.58
2023-05-20T07:39:20.082Z,1.83
2023-05-20T07:40:22.328Z,1.77
2023-05-20T07:41:24.626Z,1.17
2023-05-20T07:42:27.025Z,0.98
2023-05-20T07:43:29.186Z,0.80
2023-05-20T07:44:31.415Z,1.23
2023-05-20T07:45:35.970Z,0.90
2023-05-20T07:46:38.798Z,0.80
2023-05-20T07:47:41.399Z,1.15
2023-05-20T07:48:44.690Z,2.25
2023-05-20T07:49:46.979Z,1.80
2023-05-20T07:50:49.208Z,2.95
2023-05-20T07:51:51.717Z,1.02
2023-05-20T07:52:56.788Z,2.15
2023-05-20T07:53:59.462Z,2.00
2023-05-20T07:55:03.974Z,2.53
2023-05-20T07:56:06.957Z,1.92
2023-05-20T07:57:09.232Z,1.15
2023-05-20T07:58:11.523Z,2.47
2023-05-20T07:59:13.741Z,1.80
2023-05-20T08:00:16.363Z,1.33
2023-05-20T08:01:18.564Z,1.70
2023-05-20T08:02:20.829Z,1.45
2023-05-20T08:03:23.753Z,3.35
2023-05-20T08:04:27.780Z,3.17
2023-05-20T08:05:30.188Z,2.55
2023-05-20T08:06:32.757Z,2.65
2023-05-20T08:07:35.100Z,2.35
2023-05-20T08:08:37.600Z,3.28
2023-05-20T08:09:39.820Z,2.85
2023-05-20T08:10:43.438Z,2.67
2023-05-20T08:11:47.385Z,1.95
2023-05-20T08:12:50.122Z,2.08
2023-05-20T08:13:52.326Z,1.40
2023-05-20T08:14:54.797Z,1.10
2023-05-20T08:15:57.116Z,1.80
2023-05-20T08:17:00.202Z,1.50
2023-05-20T08:18:02.449Z,2.78
2023-05-20T08:19:04.734Z,2.40
2023-05-20T08:20:11.036Z,2.13
2023-05-20T08:21:14.136Z,1.48
2023-05-20T08:22:16.309Z,1.05
2023-05-20T08:23:18.473Z,1.10
2023-05-20T08:24:20.743Z,0.88
2023-05-20T08:25:23.803Z,1.10
2023-05-20T08:26:27.667Z,1.40
2023-05-20T08:27:29.909Z,2.50
2023-05-20T08:28:32.154Z,1.70
2023-05-20T08:29:34.378Z,2.30
2023-05-20T08:30:36.596Z,3.30
2023-05-20T08:31:38.833Z,1.40
2023-05-20T08:32:41.301Z,1.45
2023-05-20T08:33:43.710Z,1.60
2023-05-20T08:34:47.239Z,2.13
2023-05-20T08:35:51.633Z,0.98
2023-05-20T08:37:02.056Z,0.80
2023-05-20T08:38:12.028Z,1.10
2023-05-20T08:39:16.138Z,0.90
2023-05-20T08:40:22.913Z,1.20
2023-05-20T08:41:27.343Z,1.58
2023-05-20T08:42:32.469Z,1.55
2023-05-20T08:43:35.158Z,1.45
2023-05-20T08:44:37.908Z,1.10
2023-05-20T08:45:40.224Z,1.25
2023-05-20T08:46:43.271Z,1.50
2023-05-20T08:47:46.209Z,1.00
2023-05-20T08:48:49.285Z,0.90
2023-05-20T08:49:51.733Z,1.25
2023-05-20T08:50:57.357Z,1.00
2023-05-20T08:52:01.219Z,1.20
2023-05-20T08:53:04.670Z,1.15
2023-05-20T08:54:08.849Z,1.00
2023-05-20T08:55:15.017Z,1.42
2023-05-20T08:56:18.194Z,1.02
2023-05-20T08:57:22.333Z,1.30
2023-05-20T08:58:25.160Z,1.77
2023-05-20T08:59:29.161Z,1.60
2023-05-20T09:00:32.220Z,1.80
2023-05-20T09:01:40.129Z,1.20
2023-05-20T09:02:43.082Z,1.77
2023-05-20T09:03:45.401Z,1.50
2023-05-20T09:04:47.645Z,1.23
2023-05-20T09:05:50.198Z,1.80
2023-05-20T09:06:52.592Z,1.65
2023-05-20T09:08:06.823Z,1.00
2023-05-20T09:09:11.092Z,1.40
2023-05-20T09:10:16.291Z,1.50
2023-05-20T09:11:19.232Z,1.00
2023-05-20T09:12:23.095Z,1.15
2023-05-20T09:13:25.475Z,1.40
2023-05-20T09:14:28.669Z,1.48
2023-05-20T09:15:30.970Z,1.20
2023-05-20T09:16:33.329Z,1.30
2023-05-20T09:17:37.133Z,1.20
2023-05-20T09:18:40.325Z,1.15
2023-05-20T09:19:42.601Z,1.70
2023-05-20T09:20:47.728Z,1.50
2023-05-20T09:21:52.588Z,1.00
2023-05-20T09:22:54.894Z,1.85
2023-05-20T09:23:59.258Z,1.33
2023-05-20T09:25:02.047Z,1.27
2023-05-20T09:26:04.734Z,1.48
2023-05-20T09:27:07.230Z,1.67
2023-05-20T09:28:11.945Z,1.30
2023-05-20T09:29:14.195Z,1.38
2023-05-20T09:30:19.893Z,2.00
2023-05-20T09:31:25.737Z,1.77
2023-05-20T09:32:30.789Z,1.58
2023-05-20T09:33:35.020Z,1.55
2023-05-20T09:34:37.697Z,2.05
2023-05-20T09:35:40.017Z,1.73
2023-05-20T09:36:43.855Z,1.45
2023-05-20T09:37:48.043Z,1.83
2023-05-20T09:38:53.693Z,1.63
2023-05-20T09:39:58.208Z,1.60
2023-05-20T09:41:02.671Z,1.30
2023-05-20T09:42:14.847Z,1.95
2023-05-20T09:43:18.752Z,1.50
2023-05-20T09:44:23.323Z,1.23
2023-05-20T09:45:25.709Z,1.52
2023-05-20T09:46:28.439Z,1.65
2023-05-20T09:47:34.840Z,1.40
2023-05-20T09:48:49.324Z,1.60
2023-05-20T09:49:58.801Z,1.40
2023-05-20T09:51:08.197Z,1.60
2023-05-20T09:52:16.862Z,1.30
2023-05-20T09:53:24.218Z,1.20
2023-05-20T09:54:29.551Z,1.30
2023-05-20T09:55:36.689Z,1.45
2023-05-20T09:56:42.434Z,1.48
2023-05-20T09:57:45.249Z,1.20
2023-05-20T09:58:51.280Z,1.33
2023-05-20T09:59:56.537Z,2.50
2023-05-20T10:00:59.104Z,1.27
2023-05-20T10:02:01.654Z,1.48
2023-05-20T10:03:14.119Z,1.42
2023-05-20T10:04:17.519Z,1.45
2023-05-20T10:05:24.424Z,1.20
2023-05-20T10:07:09.589Z,1.33
2023-05-20T10:08:45.856Z,1.17
2023-05-20T10:10:00.028Z,1.25
2023-05-20T10:11:12.947Z,1.23
2023-05-20T10:12:28.131Z,1.20
2023-05-20T10:13:46.550Z,1.60
2023-05-20T10:15:07.187Z,1.48
2023-05-20T10:16:18.220Z,1.10
2023-05-20T10:18:47.010Z,1.20
2023-05-20T10:19:50.771Z,1.52
2023-05-20T10:20:53.062Z,1.48
2023-05-20T10:22:03.061Z,1.30
2023-05-20T10:23:05.694Z,1.33
2023-05-20T10:24:08.630Z,1.70
2023-05-20T10:25:23.563Z,2.00
2023-05-20T10:26:35.946Z,1.05
2023-05-20T10:27:48.678Z,1.25
2023-05-20T10:28:51.853Z,1.27
2023-05-20T10:30:08.511Z,1.17
2023-05-20T10:31:21.229Z,1.42
2023-05-20T10:32:27.672Z,1.45
2023-05-20T10:33:42.501Z,1.30
2023-05-20T10:34:50.689Z,1.42
2023-05-20T10:35:53.257Z,1.73
2023-05-20T10:36:59.457Z,1.60
2023-05-20T10:38:10.701Z,1.48
2023-05-20T10:39:18.429Z,1.23
2023-05-20T10:40:22.144Z,1.30
2023-05-20T10:41:27.184Z,1.30
2023-05-20T10:42:30.471Z,1.50
2023-05-20T10:43:32.762Z,1.42
2023-05-20T10:44:44.932Z,1.13
2023-05-20T10:45:52.558Z,1.08
2023-05-20T10:47:21.064Z,1.20
2023-05-20T10:48:28.761Z,1.08
2023-05-20T10:49:35.284Z,1.33
2023-05-20T10:50:40.565Z,1.20
2023-05-20T10:51:45.891Z,1.25
2023-05-20T10:52:48.080Z,1.20
2023-05-20T10:53:54.435Z,1.10
2023-05-20T10:54:58.015Z,1.40
2023-05-20T10:56:00.343Z,1.20
2023-05-20T10:57:08.039Z,1.30
2023-05-20T10:58:10.829Z,1.50
2023-05-20T10:59:13.151Z,1.42
2023-05-20T11:00:16.750Z,1.15
2023-05-20T11:01:25.073Z,1.17
2023-05-20T11:02:28.810Z,1.50
2023-05-20T11:03:31.957Z,1.20
2023-05-20T11:04:34.734Z,1.23
2023-05-20T11:05:39.129Z,1.23
2023-05-20T11:06:51.010Z,1.25
2023-05-20T11:08:01.646Z,1.30
2023-05-20T11:09:08.239Z,1.75
2023-05-20T11:10:11.324Z,1.45
2023-05-20T11:11:15.275Z,1.27
2023-05-20T11:12:17.706Z,1.20
2023-05-20T11:13:20.560Z,0.90
2023-05-20T11:14:23.136Z,1.25
2023-05-20T11:15:25.672Z,1.17
2023-05-20T11:16:29.393Z,1.10
2023-05-20T11:17:31.929Z,1.40
2023-05-20T11:18:34.201Z,1.38
2023-05-20T11:19:38.003Z,1.20
2023-05-20T11:20:40.487Z,1.20
2023-05-20T11:21:46.311Z,1.33
2023-05-20T11:22:50.671Z,1.48
2023-05-20T11:23:53.139Z,1.33
2023-05-20T11:24:55.637Z,0.98
2023-05-20T11:25:58.690Z,1.50
2023-05-20T11:27:02.176Z,1.15
2023-05-20T11:28:04.744Z,1.00
2023-05-20T11:29:07.239Z,1.50
2023-05-20T11:30:12.081Z,1.30
2023-05-20T11:31:14.372Z,1.50
2023-05-20T11:32:20.445Z,1.20
2023-05-20T11:33:27.444Z,1.30
2023-05-20T11:34:35.111Z,1.58
2023-05-20T11:35:45.493Z,1.50
2023-05-20T11:36:48.210Z,1.67
2023-05-20T11:37:56.294Z,1.05
2023-05-20T11:39:01.195Z,1.40
2023-05-20T11:40:07.960Z,1.65
2023-05-20T11:41:10.160Z,2.05
2023-05-20T11:42:12.350Z,1.35
2023-05-20T11:43:15.077Z,1.58
2023-05-20T11:44:20.703Z,1.60
2023-05-20T11:45:23.167Z,1.73
2023-05-20T11:46:25.557Z,2.30
2023-05-20T11:47:29.184Z,1.48
2023-05-20T11:48:31.494Z,1.30
2023-05-20T11:49:40.574Z,1.40
2023-05-20T11:50:44.058Z,1.10
2023-05-20T11:51:46.288Z,1.60
2023-05-20T11:52:57.638Z,1.70
2023-05-20T11:54:01.405Z,2.90
2023-05-20T11:55:04.287Z,2.17
2023-05-20T11:56:06.646Z,1.70
2023-05-20T11:57:08.899Z,1.33
2023-05-20T11:58:11.209Z,1.40
2023-05-20T11:59:17.201Z,1.17
2023-05-20T12:00:19.553Z,1.20
2023-05-20T12:01:23.172Z,1.50
2023-05-20T12:02:26.170Z,1.20
2023-05-20T12:03:31.811Z,1.23
2023-05-20T12:04:36.541Z,1.05
2023-05-20T12:05:39.092Z,1.10
2023-05-20T12:06:44.333Z,1.30
2023-05-20T12:07:49.620Z,1.25
2023-05-20T12:08:52.241Z,1.08
2023-05-20T12:09:54.636Z,1.20
2023-05-20T12:10:57.234Z,1.40
2023-05-20T12:11:59.582Z,1.40
2023-05-20T12:13:03.320Z,1.35
2023-05-20T12:14:08.983Z,1.40
2023-05-20T12:15:12.151Z,1.63
2023-05-20T12:16:17.459Z,1.77
2023-05-20T12:17:19.802Z,1.48
2023-05-20T12:18:27.084Z,1.50
2023-05-20T12:19:31.475Z,1.50
2023-05-20T12:20:35.357Z,1.30
2023-05-20T12:21:38.019Z,1.25
2023-05-20T12:22:40.596Z,1.10
2023-05-20T12:23:42.898Z,1.23
2023-05-20T12:24:45.181Z,1.27
2023-05-20T12:25:49.922Z,1.35
2023-05-20T12:26:55.738Z,1.20
2023-05-20T12:27:59.131Z,1.48
2023-05-20T12:29:01.703Z,1.25
2023-05-20T12:30:09.904Z,1.17
2023-05-20T12:31:12.141Z,1.38
2023-05-20T12:32:14.685Z,1.30
2023-05-20T12:33:20.873Z,1.30
2023-05-20T12:34:23.266Z,1.63
2023-05-20T12:35:37.575Z,1.63
2023-05-20T12:36:39.843Z,1.17
2023-05-20T12:37:43.092Z,1.33
2023-05-20T12:38:50.852Z,1.23
2023-05-20T12:39:53.090Z,1.55
2023-05-20T12:40:55.568Z,1.55
2023-05-20T12:41:57.910Z,1.77
2023-05-20T12:43:01.357Z,1.45
2023-05-20T12:44:03.669Z,2.35
2023-05-20T12:45:07.110Z,1.63
2023-05-20T12:46:09.779Z,1.58
2023-05-20T12:47:11.995Z,1.33
2023-05-20T12:48:14.228Z,1.98
2023-05-20T12:49:16.476Z,2.15
2023-05-20T12:50:18.799Z,1.70
2023-05-20T12:51:22.598Z,1.60
2023-05-20T12:52:25.783Z,1.23
2023-05-20T12:53:28.201Z,1.63
2023-05-20T12:54:30.417Z,1.88
2023-05-20T12:55:32.629Z,2.35
2023-05-20T12:56:35.069Z,2.10
2023-05-20T12:57:37.453Z,1.70
2023-05-20T12:58:39.798Z,1.65
2023-05-20T12:59:42.071Z,1.73
2023-05-20T13:00:44.312Z,1.40
2023-05-20T13:01:46.754Z,1.60
2023-05-20T13:02:49.412Z,1.83
2023-05-20T13:03:53.496Z,1.70
2023-05-20T13:04:56.005Z,1.60
2023-05-20T13:06:02.156Z,1.52
2023-05-20T13:07:06.257Z,1.60
2023-05-20T13:08:10.244Z,1.65
2023-05-20T13:09:12.957Z,1.38
2023-05-20T13:10:15.583Z,1.60
2023-05-20T13:11:17.896Z,1.45
2023-05-20T13:12:20.151Z,1.60
2023-05-20T13:13:22.510Z,1.40
2023-05-20T13:14:24.796Z,1.52
2023-05-20T13:15:37.174Z,2.20
2023-05-20T13:16:45.547Z,1.52
2023-05-20T13:17:48.148Z,1.70
2023-05-20T13:18:50.647Z,1.40
2023-05-20T13:19:53.072Z,2.20
2023-05-20T13:21:00.135Z,1.40
2023-05-20T13:22:02.641Z,1.80
2023-05-20T13:23:06.816Z,1.67
2023-05-20T13:24:09.246Z,1.40
2023-05-20T13:25:17.930Z,1.67
2023-05-20T13:26:20.661Z,2.38
2023-05-20T13:27:23.189Z,1.58
2023-05-20T13:28:25.675Z,1.98
2023-05-20T13:29:28.249Z,1.50
2023-05-20T13:30:30.520Z,1.60
2023-05-20T13:31:32.688Z,1.83
2023-05-20T13:32:35.165Z,1.63
2023-05-20T13:33:37.382Z,1.55
2023-05-20T13:34:39.841Z,1.52
2023-05-20T13:35:42.382Z,1.55
2023-05-20T13:36:45.436Z,1.77
2023-05-20T13:37:50.212Z,1.30
2023-05-20T13:38:54.038Z,1.30
2023-05-20T13:39:56.374Z,1.50
2023-05-20T13:40:59.539Z,1.67
2023-05-20T13:42:01.787Z,1.60
2023-05-20T13:43:04.022Z,1.63
2023-05-20T13:44:08.889Z,1.50
2023-05-20T13:45:12.167Z,1.52
2023-05-20T13:46:14.553Z,1.30
2023-05-20T13:47:16.822Z,1.60
2023-05-20T13:48:19.151Z,1.30
2023-05-20T13:49:22.045Z,1.60
2023-05-20T13:50:30.032Z,1.67
2023-05-20T13:51:32.313Z,1.75
2023-05-20T13:52:37.318Z,1.38
2023-05-20T13:53:41.100Z,1.50
2023-05-20T13:54:47.418Z,1.73
2023-05-20T13:55:49.684Z,1.60
2023-05-20T13:56:53.106Z,1.40
2023-05-20T13:57:55.750Z,1.85
2023-05-20T13:58:57.998Z,1.58
2023-05-20T14:00:00.306Z,1.90
2023-05-20T14:01:04.426Z,1.55
2023-05-20T14:02:10.998Z,1.77
2023-05-20T14:03:13.709Z,2.00
2023-05-20T14:04:16.278Z,1.60
2023-05-20T14:05:19.051Z,1.75
2023-05-20T14:06:21.490Z,1.80
2023-05-20T14:07:23.834Z,1.42
2023-05-20T14:08:26.096Z,1.70
2023-05-20T14:09:28.371Z,1.60
2023-05-20T14:10:32.198Z,2.58